Aeroporto :







RITROVATECI SU...

 
LOGIN :

Iscrizione | Disclaimer

   EN    FR    IT 

 









Sommario :    VFR   VFR Marginale   IFR   IFR Intensivo   IFR Molto Intensivo
Visibilità : 
Base nubi : 
>= 8 km
>= 3000ft
5 / 8 km
1000 / 3000 ft
1500m / 5 km
500 / 1000 ft
800 / 1500m
200 / 500 ft
< 800m
< 200 ft
Simboli :   Temporali  Nebbia  Neve Forte  Precipitazioni Forti  Vento > 20 kt







- Altitudine del aeroporto : 266 ft
- Codice IATA : MHT


KMHT - Manchester

ULTIMO METAR :
  • 202253Z 16005KT 3SM BR OVC004 21/20 A2947 RMK AO2 SFC VIS 5 SLP990 T02060200

METARs OBSOLETI :
  • 202153Z 15004KT 2 1/2SM BR OVC004 20/19 A2948 RMK AO2 SFC VIS 6 SLP995 T02000194
  • 202053Z 16007KT 2 1/2SM BR OVC003 19/19 A2950 RMK AO2 SLP001 60001 T01940189 56025

TAF KMHT
Valido dal 21 a 00 ore il 22 a 00 ore UTC


202325Z 2100/2124 14007KT 3SM BR VCSH OVC004
FM210400 VRB03KT 1SM -SHRA BR OVC003
FM210800 33008KT P6SM VCSH OVC003
FM211500 34010G19KT P6SM VCSH OVC015
FM211800 34011G20KT P6SM BKN025
FM212000 34012G22KT P6SM SCT110
FIR KZBW / America del Nord



MetMap, La meteo Aeronautica in un colpo d'occhio ! - Copyright ORBIFLY Dicembre 2007 - Disclaimer

ORBIFLY MET'MAP TEAM :

Programmazione e sviluppo : Alexandra Zaïnal
Concezione e sviluppo : Baudouin d'Aumeries
Co-Programmazione e sviluppo : Marc-Olivier Méhu
Supporto tecnico e logistico : Manuel Goepfert
Aiuto per la traduzione : Arnaldo La Scala

Contatto : metmap@orbifly.com




FONTI E CREDITI :

   NOAA